Ranelagh, Argentina
Current Conditions -  °F | °C
As of 5:00 PM on Wednesday 26 Nov 2014 (Local Time) from SAEZ Reporting Station
Clear Clear  
Wind Chill: 79°   Ceiling: Unl
Heat Index: 79°   Visibility: 6mi
Dew Point: 50°   Wind: 5mph
Humidity: 36%   Direction: 140°SE
Pressure: 29.88"   Gusts: NA
Location:  34.8°S, 58.2°W
Report Text: SAEZ 262000Z 14004KT 090V170 CAVOK 26/10 Q1012
Loading
Personal Weather Stations






























Interactive Weather Map New forecast layout! Learn more

10-Day Weather Forecast

Advertisements
Track Severe Weather on mobile